sensor_id;sensor_type;location;lat;lon;timestamp;P1;durP1;ratioP1;P2;durP2;ratioP2
78181;SDS011;67441;50.116;8.696;2023-03-04T00:00:15;15.88;;;6.45;;
78181;SDS011;67441;50.116;8.696;2023-03-04T00:01:10;13.00;;;6.68;;
78181;SDS011;67441;50.116;8.696;2023-03-04T00:02:01;15.05;;;6.43;;
78181;SDS011;67441;50.116;8.696;2023-03-04T00:02:27;14.52;;;6.65;;
78181;SDS011;67441;50.116;8.696;2023-03-04T00:02:53;16.08;;;6.97;;
78181;SDS011;67441;50.116;8.696;2023-03-04T00:03:45;15.48;;;7.35;;
78181;SDS011;67441;50.116;8.696;2023-03-04T00:04:36;12.55;;;6.10;;
78181;SDS011;67441;50.116;8.696;2023-03-04T00:05:27;14.88;;;6.32;;
78181;SDS011;67441;50.116;8.696;2023-03-04T00:05:55;13.57;;;6.80;;
78181;SDS011;67441;50.116;8.696;2023-03-04T00:06:46;14.45;;;7.00;;
78181;SDS011;67441;50.116;8.696;2023-03-04T00:07:12;14.48;;;7.18;;
78181;SDS011;67441;50.116;8.696;2023-03-04T00:07:40;17.30;;;7.90;;
78181;SDS011;67441;50.116;8.696;2023-03-04T00:08:31;15.23;;;6.53;;
78181;SDS011;67441;50.116;8.696;2023-03-04T00:09:22;17.30;;;6.55;;
78181;SDS011;67441;50.116;8.696;2023-03-04T00:10:13;15.38;;;6.72;;
78181;SDS011;67441;50.116;8.696;2023-03-04T00:10:41;19.92;;;7.20;;
78181;SDS011;67441;50.116;8.696;2023-03-04T00:11:07;16.70;;;6.95;;
78181;SDS011;67441;50.116;8.696;2023-03-04T00:12:00;15.02;;;7.18;;
78181;SDS011;67441;50.116;8.696;2023-03-04T00:12:26;15.55;;;7.43;;
78181;SDS011;67441;50.116;8.696;2023-03-04T00:13:17;16.58;;;7.47;;
78181;SDS011;67441;50.116;8.696;2023-03-04T00:13:45;16.65;;;7.35;;
78181;SDS011;67441;50.116;8.696;2023-03-04T00:14:36;16.42;;;7.32;;
78181;SDS011;67441;50.116;8.696;2023-03-04T00:15:02;14.93;;;6.13;;
78181;SDS011;67441;50.116;8.696;2023-03-04T00:15:27;14.60;;;7.57;;
78181;SDS011;67441;50.116;8.696;2023-03-04T00:16:18;13.85;;;7.43;;
78181;SDS011;67441;50.116;8.696;2023-03-04T00:16:43;14.98;;;7.35;;
78181;SDS011;67441;50.116;8.696;2023-03-04T00:17:09;17.40;;;8.60;;
78181;SDS011;67441;50.116;8.696;2023-03-04T00:18:00;18.02;;;7.05;;
78181;SDS011;67441;50.116;8.696;2023-03-04T00:18:25;13.80;;;7.22;;
78181;SDS011;67441;50.116;8.696;2023-03-04T00:19:20;13.82;;;6.75;;
78181;SDS011;67441;50.116;8.696;2023-03-04T00:19:46;16.33;;;7.55;;
78181;SDS011;67441;50.116;8.696;2023-03-04T00:20:38;18.73;;;7.22;;
78181;SDS011;67441;50.116;8.696;2023-03-04T00:21:30;11.48;;;6.47;;
78181;SDS011;67441;50.116;8.696;2023-03-04T00:22:21;16.33;;;7.75;;
78181;SDS011;67441;50.116;8.696;2023-03-04T00:22:47;13.18;;;6.45;;
78181;SDS011;67441;50.116;8.696;2023-03-04T00:23:38;15.95;;;6.93;;
78181;SDS011;67441;50.116;8.696;2023-03-04T00:24:05;18.17;;;7.43;;
78181;SDS011;67441;50.116;8.696;2023-03-04T00:24:31;17.13;;;7.97;;
78181;SDS011;67441;50.116;8.696;2023-03-04T00:24:59;13.85;;;6.75;;
78181;SDS011;67441;50.116;8.696;2023-03-04T00:25:50;16.20;;;7.00;;
78181;SDS011;67441;50.116;8.696;2023-03-04T00:26:17;15.27;;;7.22;;
78181;SDS011;67441;50.116;8.696;2023-03-04T00:26:43;17.00;;;7.50;;
78181;SDS011;67441;50.116;8.696;2023-03-04T00:27:10;14.82;;;7.25;;
78181;SDS011;67441;50.116;8.696;2023-03-04T00:28:01;15.50;;;6.88;;
78181;SDS011;67441;50.116;8.696;2023-03-04T00:28:52;16.40;;;7.28;;
78181;SDS011;67441;50.116;8.696;2023-03-04T00:29:43;15.88;;;7.07;;
78181;SDS011;67441;50.116;8.696;2023-03-04T00:30:34;14.80;;;6.43;;
78181;SDS011;67441;50.116;8.696;2023-03-04T00:31:25;15.70;;;6.45;;
78181;SDS011;67441;50.116;8.696;2023-03-04T00:32:15;16.02;;;7.35;;
78181;SDS011;67441;50.116;8.696;2023-03-04T00:32:42;15.50;;;7.25;;
78181;SDS011;67441;50.116;8.696;2023-03-04T00:33:33;14.65;;;7.75;;
78181;SDS011;67441;50.116;8.696;2023-03-04T00:33:59;15.27;;;6.85;;
78181;SDS011;67441;50.116;8.696;2023-03-04T00:34:50;13.68;;;7.03;;
78181;SDS011;67441;50.116;8.696;2023-03-04T00:35:16;16.55;;;7.07;;
78181;SDS011;67441;50.116;8.696;2023-03-04T00:36:07;15.40;;;7.28;;
78181;SDS011;67441;50.116;8.696;2023-03-04T00:36:33;14.77;;;6.63;;
78181;SDS011;67441;50.116;8.696;2023-03-04T00:37:25;15.68;;;6.82;;
78181;SDS011;67441;50.116;8.696;2023-03-04T00:38:16;12.95;;;6.00;;
78181;SDS011;67441;50.116;8.696;2023-03-04T00:38:41;13.35;;;6.57;;
78181;SDS011;67441;50.116;8.696;2023-03-04T00:39:07;16.00;;;7.15;;
78181;SDS011;67441;50.116;8.696;2023-03-04T00:39:58;17.55;;;6.65;;
78181;SDS011;67441;50.116;8.696;2023-03-04T00:40:49;15.32;;;7.10;;
78181;SDS011;67441;50.116;8.696;2023-03-04T00:41:40;20.00;;;8.00;;
78181;SDS011;67441;50.116;8.696;2023-03-04T00:42:31;12.63;;;5.93;;
78181;SDS011;67441;50.116;8.696;2023-03-04T00:42:56;15.07;;;7.25;;
78181;SDS011;67441;50.116;8.696;2023-03-04T00:43:47;15.43;;;6.50;;
78181;SDS011;67441;50.116;8.696;2023-03-04T00:44:12;14.75;;;7.30;;
78181;SDS011;67441;50.116;8.696;2023-03-04T00:45:04;14.90;;;7.78;;
78181;SDS011;67441;50.116;8.696;2023-03-04T00:45:30;17.08;;;7.70;;
78181;SDS011;67441;50.116;8.696;2023-03-04T00:46:21;16.30;;;7.18;;
78181;SDS011;67441;50.116;8.696;2023-03-04T00:47:13;13.90;;;6.72;;
78181;SDS011;67441;50.116;8.696;2023-03-04T00:47:39;16.50;;;6.78;;
78181;SDS011;67441;50.116;8.696;2023-03-04T00:48:08;14.63;;;7.35;;
78181;SDS011;67441;50.116;8.696;2023-03-04T00:48:59;13.70;;;6.82;;
78181;SDS011;67441;50.116;8.696;2023-03-04T00:49:50;15.25;;;6.43;;
78181;SDS011;67441;50.116;8.696;2023-03-04T00:50:42;17.27;;;7.15;;
78181;SDS011;67441;50.116;8.696;2023-03-04T00:51:08;17.23;;;7.15;;
78181;SDS011;67441;50.116;8.696;2023-03-04T00:51:59;16.33;;;7.20;;
78181;SDS011;67441;50.116;8.696;2023-03-04T00:52:50;14.20;;;6.97;;
78181;SDS011;67441;50.116;8.696;2023-03-04T00:53:17;17.30;;;7.60;;
78181;SDS011;67441;50.116;8.696;2023-03-04T00:54:07;14.48;;;6.75;;
78181;SDS011;67441;50.116;8.696;2023-03-04T00:54:59;12.40;;;6.75;;
78181;SDS011;67441;50.116;8.696;2023-03-04T00:55:50;12.93;;;7.43;;
78181;SDS011;67441;50.116;8.696;2023-03-04T00:56:16;11.95;;;6.68;;
78181;SDS011;67441;50.116;8.696;2023-03-04T00:57:07;14.10;;;7.28;;
78181;SDS011;67441;50.116;8.696;2023-03-04T00:57:32;14.93;;;6.78;;
78181;SDS011;67441;50.116;8.696;2023-03-04T00:58:24;16.42;;;7.20;;
78181;SDS011;67441;50.116;8.696;2023-03-04T00:59:15;15.65;;;7.32;;
78181;SDS011;67441;50.116;8.696;2023-03-04T01:00:08;15.48;;;6.78;;
78181;SDS011;67441;50.116;8.696;2023-03-04T01:00:34;14.98;;;7.13;;
78181;SDS011;67441;50.116;8.696;2023-03-04T01:01:25;17.02;;;7.93;;
78181;SDS011;67441;50.116;8.696;2023-03-04T01:01:51;16.17;;;7.57;;
78181;SDS011;67441;50.116;8.696;2023-03-04T01:02:42;17.40;;;7.53;;
78181;SDS011;67441;50.116;8.696;2023-03-04T01:03:33;16.58;;;6.88;;
78181;SDS011;67441;50.116;8.696;2023-03-04T01:04:24;14.15;;;7.25;;
78181;SDS011;67441;50.116;8.696;2023-03-04T01:05:15;17.88;;;8.13;;
78181;SDS011;67441;50.116;8.696;2023-03-04T01:06:06;16.83;;;7.38;;
78181;SDS011;67441;50.116;8.696;2023-03-04T01:06:32;17.30;;;7.95;;
78181;SDS011;67441;50.116;8.696;2023-03-04T01:07:23;19.33;;;7.63;;
78181;SDS011;67441;50.116;8.696;2023-03-04T01:07:48;18.42;;;8.02;;
78181;SDS011;67441;50.116;8.696;2023-03-04T01:08:39;17.33;;;7.95;;
78181;SDS011;67441;50.116;8.696;2023-03-04T01:09:31;18.33;;;7.88;;
78181;SDS011;67441;50.116;8.696;2023-03-04T01:10:24;21.08;;;7.85;;
78181;SDS011;67441;50.116;8.696;2023-03-04T01:10:50;18.52;;;8.65;;
78181;SDS011;67441;50.116;8.696;2023-03-04T01:11:16;21.00;;;8.68;;
78181;SDS011;67441;50.116;8.696;2023-03-04T01:12:07;17.65;;;8.10;;
78181;SDS011;67441;50.116;8.696;2023-03-04T01:12:58;20.35;;;8.20;;
78181;SDS011;67441;50.116;8.696;2023-03-04T01:13:49;16.85;;;8.48;;
78181;SDS011;67441;50.116;8.696;2023-03-04T01:14:40;16.80;;;8.10;;
78181;SDS011;67441;50.116;8.696;2023-03-04T01:15:31;18.80;;;9.00;;
78181;SDS011;67441;50.116;8.696;2023-03-04T01:16:22;18.27;;;8.52;;
78181;SDS011;67441;50.116;8.696;2023-03-04T01:16:48;17.70;;;8.00;;
78181;SDS011;67441;50.116;8.696;2023-03-04T01:17:39;19.05;;;8.23;;
78181;SDS011;67441;50.116;8.696;2023-03-04T01:18:30;21.65;;;9.38;;
78181;SDS011;67441;50.116;8.696;2023-03-04T01:18:56;19.67;;;8.48;;
78181;SDS011;67441;50.116;8.696;2023-03-04T01:19:47;19.98;;;8.82;;
78181;SDS011;67441;50.116;8.696;2023-03-04T01:20:39;21.10;;;8.48;;
78181;SDS011;67441;50.116;8.696;2023-03-04T01:21:31;20.98;;;9.15;;
78181;SDS011;67441;50.116;8.696;2023-03-04T01:21:58;20.65;;;8.70;;
78181;SDS011;67441;50.116;8.696;2023-03-04T01:22:49;21.23;;;8.93;;
78181;SDS011;67441;50.116;8.696;2023-03-04T01:23:40;20.25;;;8.10;;
78181;SDS011;67441;50.116;8.696;2023-03-04T01:24:31;23.70;;;8.68;;
78181;SDS011;67441;50.116;8.696;2023-03-04T01:25:22;21.38;;;10.18;;
78181;SDS011;67441;50.116;8.696;2023-03-04T01:26:13;20.55;;;9.73;;
78181;SDS011;67441;50.116;8.696;2023-03-04T01:26:38;22.50;;;10.00;;
78181;SDS011;67441;50.116;8.696;2023-03-04T01:27:30;21.55;;;8.85;;
78181;SDS011;67441;50.116;8.696;2023-03-04T01:28:20;19.25;;;9.35;;
78181;SDS011;67441;50.116;8.696;2023-03-04T01:28:46;23.48;;;10.00;;
78181;SDS011;67441;50.116;8.696;2023-03-04T01:29:37;21.10;;;8.63;;
78181;SDS011;67441;50.116;8.696;2023-03-04T01:30:29;21.70;;;9.63;;
78181;SDS011;67441;50.116;8.696;2023-03-04T01:31:26;23.88;;;9.75;;
78181;SDS011;67441;50.116;8.696;2023-03-04T01:31:52;22.92;;;9.48;;
78181;SDS011;67441;50.116;8.696;2023-03-04T01:32:47;21.60;;;9.27;;
78181;SDS011;67441;50.116;8.696;2023-03-04T01:33:38;20.55;;;9.00;;
78181;SDS011;67441;50.116;8.696;2023-03-04T01:34:30;21.45;;;9.50;;
78181;SDS011;67441;50.116;8.696;2023-03-04T01:35:22;24.80;;;10.02;;
78181;SDS011;67441;50.116;8.696;2023-03-04T01:36:13;24.23;;;9.02;;
78181;SDS011;67441;50.116;8.696;2023-03-04T01:37:07;21.88;;;10.27;;
78181;SDS011;67441;50.116;8.696;2023-03-04T01:37:33;25.00;;;10.45;;
78181;SDS011;67441;50.116;8.696;2023-03-04T01:38:24;25.63;;;10.15;;
78181;SDS011;67441;50.116;8.696;2023-03-04T01:39:15;23.40;;;9.65;;
78181;SDS011;67441;50.116;8.696;2023-03-04T01:40:07;22.90;;;10.35;;
78181;SDS011;67441;50.116;8.696;2023-03-04T01:40:33;20.45;;;8.68;;
78181;SDS011;67441;50.116;8.696;2023-03-04T01:41:24;23.75;;;10.55;;
78181;SDS011;67441;50.116;8.696;2023-03-04T01:41:51;24.60;;;10.48;;
78181;SDS011;67441;50.116;8.696;2023-03-04T01:42:44;23.77;;;9.93;;
78181;SDS011;67441;50.116;8.696;2023-03-04T01:43:14;22.63;;;11.02;;
78181;SDS011;67441;50.116;8.696;2023-03-04T01:43:44;24.98;;;11.05;;
78181;SDS011;67441;50.116;8.696;2023-03-04T01:44:35;25.08;;;9.93;;
78181;SDS011;67441;50.116;8.696;2023-03-04T01:45:00;25.65;;;10.77;;
78181;SDS011;67441;50.116;8.696;2023-03-04T01:45:26;22.50;;;9.75;;
78181;SDS011;67441;50.116;8.696;2023-03-04T01:45:53;23.65;;;10.43;;
78181;SDS011;67441;50.116;8.696;2023-03-04T01:46:20;24.98;;;10.93;;
78181;SDS011;67441;50.116;8.696;2023-03-04T01:47:12;24.20;;;9.93;;
78181;SDS011;67441;50.116;8.696;2023-03-04T01:47:38;22.90;;;10.60;;
78181;SDS011;67441;50.116;8.696;2023-03-04T01:48:30;24.77;;;10.23;;
78181;SDS011;67441;50.116;8.696;2023-03-04T01:49:01;21.10;;;9.57;;
78181;SDS011;67441;50.116;8.696;2023-03-04T01:49:53;22.48;;;10.18;;
78181;SDS011;67441;50.116;8.696;2023-03-04T01:50:21;25.52;;;10.05;;
78181;SDS011;67441;50.116;8.696;2023-03-04T01:50:52;21.65;;;8.85;;
78181;SDS011;67441;50.116;8.696;2023-03-04T01:51:45;24.73;;;9.70;;
78181;SDS011;67441;50.116;8.696;2023-03-04T01:52:13;23.33;;;9.88;;
78181;SDS011;67441;50.116;8.696;2023-03-04T01:53:05;23.38;;;9.80;;
78181;SDS011;67441;50.116;8.696;2023-03-04T01:53:33;23.48;;;10.52;;
78181;SDS011;67441;50.116;8.696;2023-03-04T01:54:24;19.92;;;9.40;;
78181;SDS011;67441;50.116;8.696;2023-03-04T01:55:17;23.20;;;10.00;;
78181;SDS011;67441;50.116;8.696;2023-03-04T01:55:43;22.38;;;10.25;;
78181;SDS011;67441;50.116;8.696;2023-03-04T01:56:44;22.80;;;9.85;;
78181;SDS011;67441;50.116;8.696;2023-03-04T01:57:15;22.20;;;10.25;;
78181;SDS011;67441;50.116;8.696;2023-03-04T01:57:47;27.55;;;10.45;;
78181;SDS011;67441;50.116;8.696;2023-03-04T01:58:14;22.95;;;10.13;;
78181;SDS011;67441;50.116;8.696;2023-03-04T01:59:05;20.73;;;9.00;;
78181;SDS011;67441;50.116;8.696;2023-03-04T01:59:37;23.30;;;10.43;;
78181;SDS011;67441;50.116;8.696;2023-03-04T02:00:45;22.05;;;9.77;;
78181;SDS011;67441;50.116;8.696;2023-03-04T02:01:37;24.75;;;10.23;;
78181;SDS011;67441;50.116;8.696;2023-03-04T02:02:04;24.40;;;10.27;;
78181;SDS011;67441;50.116;8.696;2023-03-04T02:02:56;25.30;;;9.57;;
78181;SDS011;67441;50.116;8.696;2023-03-04T02:03:28;23.80;;;9.88;;
78181;SDS011;67441;50.116;8.696;2023-03-04T02:03:54;25.00;;;10.40;;
78181;SDS011;67441;50.116;8.696;2023-03-04T02:04:46;20.02;;;9.50;;
78181;SDS011;67441;50.116;8.696;2023-03-04T02:05:38;21.67;;;10.05;;
78181;SDS011;67441;50.116;8.696;2023-03-04T02:06:06;22.67;;;9.65;;
78181;SDS011;67441;50.116;8.696;2023-03-04T02:06:57;19.23;;;10.23;;
78181;SDS011;67441;50.116;8.696;2023-03-04T02:07:24;20.75;;;9.98;;
78181;SDS011;67441;50.116;8.696;2023-03-04T02:08:16;24.02;;;9.93;;
78181;SDS011;67441;50.116;8.696;2023-03-04T02:08:43;25.60;;;10.15;;
78181;SDS011;67441;50.116;8.696;2023-03-04T02:09:34;24.88;;;9.77;;
78181;SDS011;67441;50.116;8.696;2023-03-04T02:10:01;23.98;;;10.23;;
78181;SDS011;67441;50.116;8.696;2023-03-04T02:10:52;21.05;;;9.70;;
78181;SDS011;67441;50.116;8.696;2023-03-04T02:11:18;23.55;;;10.63;;
78181;SDS011;67441;50.116;8.696;2023-03-04T02:12:10;24.30;;;11.07;;
78181;SDS011;67441;50.116;8.696;2023-03-04T02:13:01;23.15;;;10.20;;
78181;SDS011;67441;50.116;8.696;2023-03-04T02:13:27;25.00;;;11.48;;
78181;SDS011;67441;50.116;8.696;2023-03-04T02:14:18;23.35;;;10.27;;
78181;SDS011;67441;50.116;8.696;2023-03-04T02:14:44;20.85;;;10.38;;
78181;SDS011;67441;50.116;8.696;2023-03-04T02:15:35;21.55;;;9.55;;
78181;SDS011;67441;50.116;8.696;2023-03-04T02:16:26;22.58;;;10.30;;
78181;SDS011;67441;50.116;8.696;2023-03-04T02:17:23;20.60;;;9.38;;
78181;SDS011;67441;50.116;8.696;2023-03-04T02:17:51;25.65;;;10.63;;
78181;SDS011;67441;50.116;8.696;2023-03-04T02:18:44;22.15;;;10.70;;
78181;SDS011;67441;50.116;8.696;2023-03-04T02:19:48;23.58;;;10.90;;
78181;SDS011;67441;50.116;8.696;2023-03-04T02:20:39;22.42;;;10.70;;
78181;SDS011;67441;50.116;8.696;2023-03-04T02:21:22;24.30;;;10.35;;
78181;SDS011;67441;50.116;8.696;2023-03-04T02:21:53;22.17;;;10.20;;
78181;SDS011;67441;50.116;8.696;2023-03-04T02:22:47;21.27;;;10.52;;
78181;SDS011;67441;50.116;8.696;2023-03-04T02:24:22;22.77;;;10.75;;
78181;SDS011;67441;50.116;8.696;2023-03-04T02:24:54;25.30;;;11.00;;
78181;SDS011;67441;50.116;8.696;2023-03-04T02:25:32;23.35;;;11.27;;
78181;SDS011;67441;50.116;8.696;2023-03-04T02:26:11;24.20;;;11.57;;
78181;SDS011;67441;50.116;8.696;2023-03-04T02:26:44;23.92;;;11.20;;
78181;SDS011;67441;50.116;8.696;2023-03-04T02:27:11;24.30;;;11.35;;
78181;SDS011;67441;50.116;8.696;2023-03-04T02:28:02;21.63;;;10.68;;
78181;SDS011;67441;50.116;8.696;2023-03-04T02:28:53;21.60;;;10.40;;
78181;SDS011;67441;50.116;8.696;2023-03-04T02:29:20;22.15;;;10.43;;
78181;SDS011;67441;50.116;8.696;2023-03-04T02:30:12;23.13;;;10.30;;
78181;SDS011;67441;50.116;8.696;2023-03-04T02:30:38;25.23;;;11.45;;
78181;SDS011;67441;50.116;8.696;2023-03-04T02:31:59;25.15;;;10.68;;
78181;SDS011;67441;50.116;8.696;2023-03-04T02:32:51;21.95;;;10.82;;
78181;SDS011;67441;50.116;8.696;2023-03-04T02:33:17;23.40;;;11.30;;
78181;SDS011;67441;50.116;8.696;2023-03-04T02:33:43;26.70;;;11.50;;
78181;SDS011;67441;50.116;8.696;2023-03-04T02:34:45;22.92;;;10.75;;
78181;SDS011;67441;50.116;8.696;2023-03-04T02:35:15;24.95;;;11.15;;
78181;SDS011;67441;50.116;8.696;2023-03-04T02:35:41;25.75;;;11.35;;
78181;SDS011;67441;50.116;8.696;2023-03-04T02:36:33;24.27;;;10.63;;
78181;SDS011;67441;50.116;8.696;2023-03-04T02:37:00;27.55;;;10.57;;
78181;SDS011;67441;50.116;8.696;2023-03-04T02:37:27;23.15;;;11.85;;
78181;SDS011;67441;50.116;8.696;2023-03-04T02:38:18;25.20;;;11.52;;
78181;SDS011;67441;50.116;8.696;2023-03-04T02:39:49;25.27;;;10.45;;
78181;SDS011;67441;50.116;8.696;2023-03-04T02:40:52;21.30;;;10.93;;
78181;SDS011;67441;50.116;8.696;2023-03-04T02:41:21;25.52;;;12.05;;
78181;SDS011;67441;50.116;8.696;2023-03-04T02:41:51;26.27;;;12.40;;
78181;SDS011;67441;50.116;8.696;2023-03-04T02:42:18;25.35;;;12.32;;
78181;SDS011;67441;50.116;8.696;2023-03-04T02:43:12;25.38;;;10.32;;
78181;SDS011;67441;50.116;8.696;2023-03-04T02:43:38;23.55;;;10.63;;
78181;SDS011;67441;50.116;8.696;2023-03-04T02:44:58;25.45;;;10.90;;
78181;SDS011;67441;50.116;8.696;2023-03-04T02:45:30;21.73;;;10.88;;
78181;SDS011;67441;50.116;8.696;2023-03-04T02:46:00;25.80;;;11.80;;
78181;SDS011;67441;50.116;8.696;2023-03-04T02:46:51;23.27;;;11.07;;
78181;SDS011;67441;50.116;8.696;2023-03-04T02:47:17;25.80;;;10.68;;
78181;SDS011;67441;50.116;8.696;2023-03-04T02:48:08;22.65;;;10.32;;
78181;SDS011;67441;50.116;8.696;2023-03-04T02:48:34;21.52;;;10.68;;
78181;SDS011;67441;50.116;8.696;2023-03-04T02:49:26;24.00;;;11.00;;
78181;SDS011;67441;50.116;8.696;2023-03-04T02:49:52;22.73;;;10.75;;
78181;SDS011;67441;50.116;8.696;2023-03-04T02:50:45;25.73;;;10.77;;
78181;SDS011;67441;50.116;8.696;2023-03-04T02:51:12;23.48;;;11.93;;
78181;SDS011;67441;50.116;8.696;2023-03-04T02:52:05;25.85;;;11.50;;
78181;SDS011;67441;50.116;8.696;2023-03-04T02:52:36;23.20;;;10.57;;
78181;SDS011;67441;50.116;8.696;2023-03-04T02:53:27;25.92;;;10.75;;
78181;SDS011;67441;50.116;8.696;2023-03-04T02:54:19;24.02;;;10.02;;
78181;SDS011;67441;50.116;8.696;2023-03-04T02:54:46;24.33;;;9.90;;
78181;SDS011;67441;50.116;8.696;2023-03-04T02:55:37;23.58;;;10.77;;
78181;SDS011;67441;50.116;8.696;2023-03-04T02:56:28;22.40;;;10.13;;
78181;SDS011;67441;50.116;8.696;2023-03-04T02:57:20;22.83;;;9.75;;
78181;SDS011;67441;50.116;8.696;2023-03-04T02:58:11;20.20;;;9.70;;
78181;SDS011;67441;50.116;8.696;2023-03-04T02:58:37;22.55;;;10.43;;
78181;SDS011;67441;50.116;8.696;2023-03-04T02:59:04;21.15;;;10.32;;
78181;SDS011;67441;50.116;8.696;2023-03-04T02:59:54;27.90;;;11.27;;
78181;SDS011;67441;50.116;8.696;2023-03-04T03:00:45;20.15;;;10.02;;
78181;SDS011;67441;50.116;8.696;2023-03-04T03:01:36;19.35;;;8.98;;
78181;SDS011;67441;50.116;8.696;2023-03-04T03:02:26;18.67;;;8.70;;
78181;SDS011;67441;50.116;8.696;2023-03-04T03:02:52;21.65;;;9.38;;
78181;SDS011;67441;50.116;8.696;2023-03-04T03:03:18;21.98;;;9.60;;
78181;SDS011;67441;50.116;8.696;2023-03-04T03:04:09;18.35;;;8.40;;
78181;SDS011;67441;50.116;8.696;2023-03-04T03:04:35;21.30;;;9.57;;
78181;SDS011;67441;50.116;8.696;2023-03-04T03:05:02;21.95;;;9.98;;
78181;SDS011;67441;50.116;8.696;2023-03-04T03:05:54;20.88;;;8.73;;
78181;SDS011;67441;50.116;8.696;2023-03-04T03:06:45;18.48;;;8.73;;
78181;SDS011;67441;50.116;8.696;2023-03-04T03:07:36;18.70;;;8.98;;
78181;SDS011;67441;50.116;8.696;2023-03-04T03:08:27;19.92;;;8.70;;
78181;SDS011;67441;50.116;8.696;2023-03-04T03:09:18;20.08;;;9.00;;
78181;SDS011;67441;50.116;8.696;2023-03-04T03:10:09;20.15;;;9.20;;
78181;SDS011;67441;50.116;8.696;2023-03-04T03:11:00;19.55;;;8.68;;
78181;SDS011;67441;50.116;8.696;2023-03-04T03:11:29;17.90;;;8.73;;
78181;SDS011;67441;50.116;8.696;2023-03-04T03:12:20;21.27;;;9.13;;
78181;SDS011;67441;50.116;8.696;2023-03-04T03:12:45;22.05;;;9.80;;
78181;SDS011;67441;50.116;8.696;2023-03-04T03:13:37;20.70;;;9.23;;
78181;SDS011;67441;50.116;8.696;2023-03-04T03:14:28;19.65;;;9.20;;
78181;SDS011;67441;50.116;8.696;2023-03-04T03:15:18;17.38;;;7.68;;
78181;SDS011;67441;50.116;8.696;2023-03-04T03:15:45;20.13;;;9.70;;
78181;SDS011;67441;50.116;8.696;2023-03-04T03:16:36;18.00;;;8.32;;
78181;SDS011;67441;50.116;8.696;2023-03-04T03:17:27;21.33;;;9.00;;
78181;SDS011;67441;50.116;8.696;2023-03-04T03:18:18;18.52;;;8.35;;
78181;SDS011;67441;50.116;8.696;2023-03-04T03:19:09;19.95;;;8.07;;
78181;SDS011;67441;50.116;8.696;2023-03-04T03:20:00;21.20;;;8.57;;
78181;SDS011;67441;50.116;8.696;2023-03-04T03:20:26;20.23;;;9.23;;
78181;SDS011;67441;50.116;8.696;2023-03-04T03:20:51;21.10;;;9.45;;
78181;SDS011;67441;50.116;8.696;2023-03-04T03:21:42;21.38;;;9.07;;
78181;SDS011;67441;50.116;8.696;2023-03-04T03:22:32;24.77;;;9.50;;
78181;SDS011;67441;50.116;8.696;2023-03-04T03:23:23;22.73;;;9.85;;
78181;SDS011;67441;50.116;8.696;2023-03-04T03:24:14;18.15;;;8.23;;
78181;SDS011;67441;50.116;8.696;2023-03-04T03:24:40;19.75;;;8.60;;
78181;SDS011;67441;50.116;8.696;2023-03-04T03:25:31;18.45;;;8.80;;
78181;SDS011;67441;50.116;8.696;2023-03-04T03:26:22;19.73;;;8.88;;
78181;SDS011;67441;50.116;8.696;2023-03-04T03:26:48;18.95;;;8.43;;
78181;SDS011;67441;50.116;8.696;2023-03-04T03:27:38;20.30;;;8.20;;
78181;SDS011;67441;50.116;8.696;2023-03-04T03:28:04;20.67;;;8.70;;
78181;SDS011;67441;50.116;8.696;2023-03-04T03:28:55;19.02;;;8.57;;
78181;SDS011;67441;50.116;8.696;2023-03-04T03:29:20;21.45;;;9.38;;
78181;SDS011;67441;50.116;8.696;2023-03-04T03:30:12;21.90;;;8.80;;
78181;SDS011;67441;50.116;8.696;2023-03-04T03:30:39;20.35;;;9.13;;
78181;SDS011;67441;50.116;8.696;2023-03-04T03:31:29;19.88;;;8.32;;
78181;SDS011;67441;50.116;8.696;2023-03-04T03:32:20;19.23;;;8.63;;
78181;SDS011;67441;50.116;8.696;2023-03-04T03:33:11;17.60;;;8.25;;
78181;SDS011;67441;50.116;8.696;2023-03-04T03:34:02;19.63;;;8.60;;
78181;SDS011;67441;50.116;8.696;2023-03-04T03:34:53;19.88;;;9.20;;
78181;SDS011;67441;50.116;8.696;2023-03-04T03:35:19;18.15;;;8.13;;
78181;SDS011;67441;50.116;8.696;2023-03-04T03:36:09;20.17;;;8.07;;
78181;SDS011;67441;50.116;8.696;2023-03-04T03:37:00;20.13;;;8.65;;
78181;SDS011;67441;50.116;8.696;2023-03-04T03:37:50;18.38;;;8.65;;
78181;SDS011;67441;50.116;8.696;2023-03-04T03:38:16;21.60;;;9.93;;
78181;SDS011;67441;50.116;8.696;2023-03-04T03:39:07;20.60;;;9.60;;
78181;SDS011;67441;50.116;8.696;2023-03-04T03:39:57;22.45;;;9.10;;
78181;SDS011;67441;50.116;8.696;2023-03-04T03:40:48;20.20;;;8.43;;
78181;SDS011;67441;50.116;8.696;2023-03-04T03:41:39;18.75;;;8.18;;
78181;SDS011;67441;50.116;8.696;2023-03-04T03:42:30;21.35;;;9.95;;
78181;SDS011;67441;50.116;8.696;2023-03-04T03:43:20;18.45;;;8.25;;
78181;SDS011;67441;50.116;8.696;2023-03-04T03:44:11;21.38;;;8.82;;
78181;SDS011;67441;50.116;8.696;2023-03-04T03:45:02;18.25;;;8.65;;
78181;SDS011;67441;50.116;8.696;2023-03-04T03:45:52;22.25;;;8.73;;
78181;SDS011;67441;50.116;8.696;2023-03-04T03:46:43;21.85;;;10.38;;
78181;SDS011;67441;50.116;8.696;2023-03-04T03:47:34;20.60;;;9.32;;
78181;SDS011;67441;50.116;8.696;2023-03-04T03:48:00;20.08;;;8.93;;
78181;SDS011;67441;50.116;8.696;2023-03-04T03:48:50;19.65;;;8.73;;
78181;SDS011;67441;50.116;8.696;2023-03-04T03:49:41;18.95;;;8.45;;
78181;SDS011;67441;50.116;8.696;2023-03-04T03:50:32;18.63;;;8.30;;
78181;SDS011;67441;50.116;8.696;2023-03-04T03:51:23;18.05;;;8.43;;
78181;SDS011;67441;50.116;8.696;2023-03-04T03:52:13;22.90;;;9.13;;
78181;SDS011;67441;50.116;8.696;2023-03-04T03:52:39;22.17;;;8.82;;
78181;SDS011;67441;50.116;8.696;2023-03-04T03:53:30;19.00;;;9.45;;
78181;SDS011;67441;50.116;8.696;2023-03-04T03:54:20;19.17;;;8.38;;
78181;SDS011;67441;50.116;8.696;2023-03-04T03:55:11;19.00;;;8.00;;
78181;SDS011;67441;50.116;8.696;2023-03-04T03:55:36;22.58;;;10.05;;
78181;SDS011;67441;50.116;8.696;2023-03-04T03:56:03;20.73;;;10.30;;
78181;SDS011;67441;50.116;8.696;2023-03-04T03:56:29;21.48;;;9.52;;
78181;SDS011;67441;50.116;8.696;2023-03-04T03:57:20;18.10;;;8.65;;
78181;SDS011;67441;50.116;8.696;2023-03-04T03:58:10;19.48;;;9.30;;
78181;SDS011;67441;50.116;8.696;2023-03-04T03:58:36;20.27;;;9.13;;
78181;SDS011;67441;50.116;8.696;2023-03-04T03:59:26;21.85;;;8.93;;
78181;SDS011;67441;50.116;8.696;2023-03-04T04:00:17;22.75;;;9.68;;
78181;SDS011;67441;50.116;8.696;2023-03-04T04:01:08;17.45;;;8.88;;
78181;SDS011;67441;50.116;8.696;2023-03-04T04:01:59;21.35;;;9.35;;
78181;SDS011;67441;50.116;8.696;2023-03-04T04:02:50;20.02;;;9.88;;
78181;SDS011;67441;50.116;8.696;2023-03-04T04:03:17;22.88;;;9.90;;
78181;SDS011;67441;50.116;8.696;2023-03-04T04:04:08;22.88;;;10.20;;
78181;SDS011;67441;50.116;8.696;2023-03-04T04:04:33;21.55;;;9.48;;
78181;SDS011;67441;50.116;8.696;2023-03-04T04:05:24;20.58;;;9.48;;
78181;SDS011;67441;50.116;8.696;2023-03-04T04:06:15;30.13;;;10.52;;
78181;SDS011;67441;50.116;8.696;2023-03-04T04:07:06;18.52;;;8.68;;
78181;SDS011;67441;50.116;8.696;2023-03-04T04:07:31;23.38;;;9.88;;
78181;SDS011;67441;50.116;8.696;2023-03-04T04:08:22;22.83;;;9.60;;
78181;SDS011;67441;50.116;8.696;2023-03-04T04:08:47;21.48;;;9.80;;
78181;SDS011;67441;50.116;8.696;2023-03-04T04:09:13;23.00;;;9.38;;
78181;SDS011;67441;50.116;8.696;2023-03-04T04:09:38;24.05;;;10.02;;
78181;SDS011;67441;50.116;8.696;2023-03-04T04:10:04;23.10;;;10.10;;
78181;SDS011;67441;50.116;8.696;2023-03-04T04:10:30;19.80;;;9.93;;